Owen Sound, Canada
Current Conditions -  °F | °C
As of 11:00 PM on Friday 19 Dec 2014 (Local Time) from CYVV Reporting Station
Broken Clouds Broken Clouds  
Wind Chill: -5°   Ceiling: 1500
Heat Index: -5°   Visibility: 15mi
Dew Point: -7°   Wind: 0mph
Humidity: 86%   Direction: NA
Pressure: 30.28"   Gusts: NA
Location:  44.56°N, 80.94°W
Report Text: CYVV 200400Z 00000KT 15SM BKN015 M05/M07 A3028 RMK SC7 SLP266
Loading
Personal Weather Stations






























Interactive Weather Map New forecast layout! Learn more

10-Day Weather Forecast

Advertisements
Track Severe Weather on mobile